BAW614 EGLL-LIRP
Flight info
| Callsign | BAW614 |
|---|---|
| Flight time | N/A |
| Altitude | 35000 |
| Route | MODMI M185 MID L612 BOGNA UL612 VEULE DCT TEPRI DCT POGZI DCT GELTA DCT LUVAL DCT SHARA DCT DEVDI DCT ODINA DCT SRN DCT ROBAS DCT OSBUL DCT EKPAL DCT MIVKI |
| Aircraft | A320/M-SDE3FGHIRWY/LB1 |
Departure
| Time | 2026-04-30 14:02 |
|---|---|
| Airport | London Heathrow Airport (EGLL) |
Arrival
| Time | N/A |
|---|---|
| Airport | Pisa International Airport (LIRP) |
| Time | Latitude | Longitude | Altitude | Speed | Heading |
|---|---|---|---|---|---|
| 2026-04-30 13:19 | 51.47208 | -0.47188 | 90 ft | 0 kts | 89° |
| 2026-04-30 13:48 | 51.47208 | -0.47190 | 86 ft | 2 kts | 89° |
| 2026-04-30 13:49 | 51.47208 | -0.47230 | 88 ft | 4 kts | 89° |
| 2026-04-30 13:49 | 51.47208 | -0.47273 | 90 ft | 4 kts | 89° |
| 2026-04-30 13:49 | 51.47208 | -0.47308 | 90 ft | 4 kts | 100° |
| 2026-04-30 13:49 | 51.47218 | -0.47343 | 88 ft | 4 kts | 146° |
| 2026-04-30 13:50 | 51.47240 | -0.47353 | 88 ft | 4 kts | 179° |
| 2026-04-30 13:50 | 51.47251 | -0.47353 | 86 ft | 0 kts | 179° |
| 2026-04-30 13:52 | 51.47249 | -0.47353 | 87 ft | 0 kts | 179° |
| 2026-04-30 13:56 | 51.47247 | -0.47353 | 86 ft | 1 kts | 179° |
| 2026-04-30 13:56 | 51.47192 | -0.47353 | 86 ft | 14 kts | 180° |
| 2026-04-30 13:56 | 51.47082 | -0.47352 | 86 ft | 17 kts | 179° |
| 2026-04-30 13:56 | 51.46959 | -0.47351 | 86 ft | 19 kts | 180° |
| 2026-04-30 13:57 | 51.46832 | -0.47349 | 86 ft | 18 kts | 179° |
| 2026-04-30 13:57 | 51.46746 | -0.47405 | 86 ft | 14 kts | 251° |
| 2026-04-30 13:57 | 51.46745 | -0.47575 | 86 ft | 16 kts | 269° |
| 2026-04-30 13:57 | 51.46744 | -0.47761 | 86 ft | 17 kts | 270° |
| 2026-04-30 13:58 | 51.46706 | -0.47862 | 87 ft | 7 kts | 195° |
| 2026-04-30 13:58 | 51.46652 | -0.48019 | 86 ft | 11 kts | 270° |
| 2026-04-30 13:58 | 51.46651 | -0.48149 | 86 ft | 12 kts | 262° |
| 2026-04-30 13:59 | 51.46606 | -0.48212 | 87 ft | 8 kts | 182° |
| 2026-04-30 13:59 | 51.46598 | -0.48212 | 89 ft | 0 kts | 179° |
| 2026-04-30 14:00 | 51.46597 | -0.48212 | 88 ft | 1 kts | 179° |
| 2026-04-30 14:00 | 51.46480 | -0.48150 | 89 ft | 14 kts | 106° |
| 2026-04-30 14:00 | 51.46479 | -0.48088 | 87 ft | 9 kts | 89° |
| 2026-04-30 14:01 | 51.46481 | -0.47597 | 85 ft | 77 kts | 89° |
| 2026-04-30 14:01 | 51.46486 | -0.46435 | 91 ft | 128 kts | 89° |
| 2026-04-30 14:01 | 51.46491 | -0.44775 | 140 ft | 163 kts | 90° |
| 2026-04-30 14:01 | 51.46497 | -0.42934 | 676 ft | 168 kts | 89° |
| 2026-04-30 14:02 | 51.46392 | -0.41057 | 1335 ft | 170 kts | 110° |
| 2026-04-30 14:02 | 51.45818 | -0.39351 | 1733 ft | 186 kts | 124° |
| 2026-04-30 14:02 | 51.44847 | -0.37806 | 1994 ft | 213 kts | 149° |
| 2026-04-30 14:02 | 51.43351 | -0.37024 | 2528 ft | 233 kts | 159° |
| 2026-04-30 14:03 | 51.41784 | -0.36254 | 3308 ft | 238 kts | 158° |
| 2026-04-30 14:03 | 51.40116 | -0.35839 | 4133 ft | 251 kts | 179° |
| 2026-04-30 14:03 | 51.38426 | -0.36669 | 5006 ft | 263 kts | 200° |
| 2026-04-30 14:03 | 51.36775 | -0.37978 | 5754 ft | 268 kts | 200° |
| 2026-04-30 14:04 | 51.35106 | -0.39307 | 5999 ft | 267 kts | 200° |
| 2026-04-30 14:04 | 51.33433 | -0.40634 | 6400 ft | 269 kts | 200° |
| 2026-04-30 14:04 | 51.31741 | -0.41969 | 7187 ft | 272 kts | 200° |
| 2026-04-30 14:04 | 51.30027 | -0.43315 | 7965 ft | 276 kts | 200° |
| 2026-04-30 14:05 | 51.28291 | -0.44671 | 8725 ft | 280 kts | 200° |
| 2026-04-30 14:05 | 51.26530 | -0.46052 | 9480 ft | 284 kts | 201° |
| 2026-04-30 14:05 | 51.24751 | -0.47465 | 10212 ft | 287 kts | 201° |
| 2026-04-30 14:05 | 51.22923 | -0.48921 | 10578 ft | 304 kts | 201° |
| 2026-04-30 14:06 | 51.20952 | -0.50464 | 10719 ft | 327 kts | 201° |
| 2026-04-30 14:06 | 51.16624 | -0.53805 | 11031 ft | 365 kts | 202° |
| 2026-04-30 14:07 | 51.11978 | -0.57400 | 12155 ft | 375 kts | 202° |
| 2026-04-30 14:07 | 51.09567 | -0.58982 | 12759 ft | 375 kts | 193° |
| 2026-04-30 14:07 | 51.07003 | -0.59701 | 13353 ft | 374 kts | 180° |
| 2026-04-30 14:08 | 51.01910 | -0.58330 | 14487 ft | 375 kts | 156° |
| 2026-04-30 14:08 | 50.99645 | -0.56367 | 15035 ft | 376 kts | 145° |
| 2026-04-30 14:08 | 50.95291 | -0.51696 | 16173 ft | 379 kts | 145° |
| 2026-04-30 14:09 | 50.93090 | -0.49355 | 16751 ft | 381 kts | 145° |
| 2026-04-30 14:09 | 50.90878 | -0.47011 | 17330 ft | 383 kts | 145° |
| 2026-04-30 14:09 | 50.86418 | -0.42281 | 18470 ft | 388 kts | 145° |
| 2026-04-30 14:10 | 50.84165 | -0.39897 | 18961 ft | 390 kts | 145° |
| 2026-04-30 14:10 | 50.81893 | -0.37500 | 19445 ft | 393 kts | 145° |
| 2026-04-30 14:10 | 50.79611 | -0.35092 | 19921 ft | 395 kts | 145° |
| 2026-04-30 14:10 | 50.77348 | -0.32706 | 20374 ft | 397 kts | 145° |
| 2026-04-30 14:11 | 50.75046 | -0.30282 | 20831 ft | 399 kts | 145° |
| 2026-04-30 14:11 | 50.72730 | -0.27841 | 21257 ft | 401 kts | 144° |
| 2026-04-30 14:11 | 50.70408 | -0.25390 | 21667 ft | 403 kts | 144° |
| 2026-04-30 14:11 | 50.68074 | -0.22929 | 22054 ft | 405 kts | 144° |
| 2026-04-30 14:12 | 50.65723 | -0.20457 | 22431 ft | 406 kts | 144° |
| 2026-04-30 14:12 | 50.63365 | -0.17985 | 22801 ft | 408 kts | 144° |
| 2026-04-30 14:12 | 50.60988 | -0.15499 | 23172 ft | 410 kts | 144° |
| 2026-04-30 14:12 | 50.59411 | -0.13851 | 23400 ft | 411 kts | 144° |
| 2026-04-30 14:13 | 50.56211 | -0.10516 | 23849 ft | 413 kts | 144° |
| 2026-04-30 14:13 | 50.53804 | -0.08013 | 24135 ft | 415 kts | 144° |
| 2026-04-30 14:13 | 50.51388 | -0.05499 | 24422 ft | 417 kts | 144° |
| 2026-04-30 14:13 | 50.48964 | -0.02978 | 24736 ft | 417 kts | 144° |
| 2026-04-30 14:14 | 50.46576 | -0.00498 | 25139 ft | 416 kts | 144° |
| 2026-04-30 14:14 | 50.44154 | 0.02016 | 25498 ft | 417 kts | 144° |
| 2026-04-30 14:14 | 50.41739 | 0.04517 | 25883 ft | 416 kts | 144° |
| 2026-04-30 14:14 | 50.39319 | 0.07022 | 26314 ft | 415 kts | 144° |
| 2026-04-30 14:15 | 50.36916 | 0.09511 | 26751 ft | 414 kts | 144° |
| 2026-04-30 14:15 | 50.34509 | 0.11997 | 27190 ft | 413 kts | 144° |
| 2026-04-30 14:15 | 50.32109 | 0.14470 | 27628 ft | 412 kts | 144° |
| 2026-04-30 14:15 | 50.29721 | 0.16930 | 28081 ft | 411 kts | 144° |
| 2026-04-30 14:16 | 50.27338 | 0.19383 | 28535 ft | 409 kts | 144° |
| 2026-04-30 14:16 | 50.24961 | 0.21829 | 28989 ft | 408 kts | 145° |
| 2026-04-30 14:16 | 50.22589 | 0.24262 | 29438 ft | 407 kts | 145° |
| 2026-04-30 14:16 | 50.20225 | 0.26683 | 29889 ft | 406 kts | 145° |
| 2026-04-30 14:17 | 50.17893 | 0.29077 | 30296 ft | 407 kts | 145° |
| 2026-04-30 14:17 | 50.15526 | 0.31517 | 30595 ft | 408 kts | 145° |
| 2026-04-30 14:17 | 50.13154 | 0.33963 | 30927 ft | 408 kts | 145° |
| 2026-04-30 14:17 | 50.10775 | 0.36411 | 31278 ft | 408 kts | 145° |
| 2026-04-30 14:18 | 50.08402 | 0.38842 | 31641 ft | 408 kts | 145° |
| 2026-04-30 14:18 | 50.06055 | 0.41245 | 31993 ft | 408 kts | 145° |
| 2026-04-30 14:18 | 50.01304 | 0.46096 | 32711 ft | 408 kts | 145° |
| 2026-04-30 14:19 | 49.96585 | 0.50908 | 33594 ft | 404 kts | 145° |
| 2026-04-30 14:19 | 49.94225 | 0.53312 | 33843 ft | 406 kts | 145° |
| 2026-04-30 14:19 | 49.91853 | 0.55725 | 34113 ft | 408 kts | 145° |
| 2026-04-30 14:20 | 49.89470 | 0.58144 | 34382 ft | 409 kts | 145° |
| 2026-04-30 14:20 | 49.87091 | 0.60566 | 34641 ft | 408 kts | 143° |
| 2026-04-30 14:20 | 49.82993 | 0.66519 | 35107 ft | 408 kts | 131° |
| 2026-04-30 14:21 | 49.79133 | 0.73095 | 35185 ft | 418 kts | 131° |
| 2026-04-30 14:22 | 49.73217 | 0.83117 | 34817 ft | 430 kts | 132° |
| 2026-04-30 14:22 | 49.69168 | 0.89947 | 35174 ft | 432 kts | 132° |
| 2026-04-30 14:22 | 49.67151 | 0.93331 | 35161 ft | 432 kts | 133° |
| 2026-04-30 14:23 | 49.59061 | 1.06897 | 35145 ft | 430 kts | 132° |
| 2026-04-30 14:24 | 49.52978 | 1.17077 | 35142 ft | 430 kts | 132° |
| 2026-04-30 14:25 | 49.44840 | 1.30590 | 35137 ft | 432 kts | 132° |
| 2026-04-30 14:26 | 49.38694 | 1.40754 | 35152 ft | 432 kts | 132° |
| 2026-04-30 14:27 | 49.32547 | 1.50867 | 35168 ft | 431 kts | 133° |
| 2026-04-30 14:27 | 49.28480 | 1.57549 | 35172 ft | 431 kts | 133° |
| 2026-04-30 14:28 | 49.22318 | 1.67629 | 35167 ft | 432 kts | 133° |
| 2026-04-30 14:28 | 49.18228 | 1.74306 | 35165 ft | 432 kts | 133° |
| 2026-04-30 14:29 | 49.10696 | 1.86558 | 35167 ft | 431 kts | 133° |
| 2026-04-30 14:31 | 48.99713 | 2.04325 | 35152 ft | 432 kts | 133° |
| 2026-04-30 14:31 | 48.93499 | 2.14312 | 35155 ft | 433 kts | 133° |
| 2026-04-30 14:32 | 48.87282 | 2.24268 | 35150 ft | 433 kts | 133° |
| 2026-04-30 14:33 | 48.83156 | 2.30848 | 35155 ft | 433 kts | 133° |
| 2026-04-30 14:33 | 48.76907 | 2.40770 | 35158 ft | 433 kts | 133° |
| 2026-04-30 14:34 | 48.72822 | 2.47245 | 35156 ft | 433 kts | 133° |
| 2026-04-30 14:34 | 48.68672 | 2.53823 | 35159 ft | 433 kts | 133° |
| 2026-04-30 14:35 | 48.62414 | 2.63703 | 35147 ft | 433 kts | 133° |
| 2026-04-30 14:36 | 48.58358 | 2.70347 | 35153 ft | 432 kts | 126° |
| 2026-04-30 14:36 | 48.55637 | 2.78380 | 35155 ft | 431 kts | 107° |
| 2026-04-30 14:37 | 48.54819 | 2.87339 | 35173 ft | 433 kts | 94° |
| 2026-04-30 14:37 | 48.54524 | 2.96436 | 35177 ft | 433 kts | 94° |
| 2026-04-30 14:38 | 48.54221 | 3.05531 | 35178 ft | 433 kts | 94° |
| 2026-04-30 14:38 | 48.53910 | 3.14541 | 35177 ft | 432 kts | 94° |
| 2026-04-30 14:39 | 48.53581 | 3.23617 | 35184 ft | 432 kts | 94° |
| 2026-04-30 14:39 | 48.53307 | 3.31136 | 35189 ft | 431 kts | 94° |
| 2026-04-30 14:40 | 48.52799 | 3.44714 | 35188 ft | 431 kts | 94° |
| 2026-04-30 14:40 | 48.52453 | 3.53740 | 35183 ft | 431 kts | 94° |
| 2026-04-30 14:41 | 48.52105 | 3.62704 | 35184 ft | 430 kts | 94° |
| 2026-04-30 14:41 | 48.51749 | 3.71731 | 35188 ft | 430 kts | 94° |
| 2026-04-30 14:42 | 48.51387 | 3.80730 | 35176 ft | 430 kts | 94° |
| 2026-04-30 14:42 | 48.51015 | 3.89722 | 35170 ft | 430 kts | 94° |
| 2026-04-30 14:43 | 48.50630 | 3.98719 | 35165 ft | 430 kts | 94° |
| 2026-04-30 14:43 | 48.49522 | 4.07555 | 35168 ft | 429 kts | 105° |
| 2026-04-30 14:44 | 48.47948 | 4.16190 | 35165 ft | 430 kts | 105° |
| 2026-04-30 14:44 | 48.46353 | 4.24886 | 35169 ft | 430 kts | 105° |
| 2026-04-30 14:45 | 48.44763 | 4.33578 | 35159 ft | 430 kts | 105° |
| 2026-04-30 14:45 | 48.43170 | 4.42246 | 35174 ft | 429 kts | 105° |
| 2026-04-30 14:46 | 48.41562 | 4.50919 | 35182 ft | 429 kts | 105° |
| 2026-04-30 14:46 | 48.39962 | 4.59515 | 35187 ft | 429 kts | 105° |
| 2026-04-30 14:47 | 48.38345 | 4.68175 | 35183 ft | 429 kts | 105° |
| 2026-04-30 14:47 | 48.36717 | 4.76826 | 35182 ft | 429 kts | 105° |
| 2026-04-30 14:48 | 48.35105 | 4.85406 | 35166 ft | 429 kts | 105° |
| 2026-04-30 14:48 | 48.33470 | 4.94046 | 35170 ft | 429 kts | 105° |
| 2026-04-30 14:49 | 48.31824 | 5.02664 | 35179 ft | 429 kts | 105° |
| 2026-04-30 14:49 | 48.30166 | 5.11281 | 35177 ft | 429 kts | 105° |
| 2026-04-30 14:50 | 48.27647 | 5.24152 | 35184 ft | 429 kts | 106° |
| 2026-04-30 14:51 | 48.25046 | 5.37014 | 35181 ft | 429 kts | 106° |
| 2026-04-30 14:52 | 48.22436 | 5.49853 | 35182 ft | 429 kts | 106° |
| 2026-04-30 14:52 | 48.19839 | 5.62628 | 35181 ft | 429 kts | 106° |
| 2026-04-30 14:53 | 48.17207 | 5.75470 | 35187 ft | 429 kts | 106° |
| 2026-04-30 14:54 | 48.13668 | 5.92554 | 35189 ft | 429 kts | 106° |
| 2026-04-30 14:55 | 48.11004 | 6.05365 | 35203 ft | 438 kts | 106° |
| 2026-04-30 14:56 | 48.07353 | 6.22783 | 35187 ft | 432 kts | 106° |
| 2026-04-30 14:57 | 48.04638 | 6.35629 | 35187 ft | 432 kts | 106° |
| 2026-04-30 14:58 | 48.01004 | 6.52735 | 35188 ft | 434 kts | 106° |
| 2026-04-30 14:58 | 47.98230 | 6.65606 | 35203 ft | 434 kts | 106° |
| 2026-04-30 15:00 | 47.92720 | 6.86557 | 35213 ft | 436 kts | 110° |
| 2026-04-30 15:01 | 47.88107 | 7.03273 | 35219 ft | 436 kts | 109° |
| 2026-04-30 15:01 | 47.84680 | 7.15838 | 35230 ft | 436 kts | 109° |
| 2026-04-30 15:02 | 47.82398 | 7.24143 | 35230 ft | 437 kts | 109° |
| 2026-04-30 15:03 | 47.76587 | 7.45110 | 35228 ft | 439 kts | 110° |
| 2026-04-30 15:04 | 47.73392 | 7.52775 | 35203 ft | 438 kts | 129° |
| 2026-04-30 15:04 | 47.65762 | 7.60513 | 35212 ft | 455 kts | 151° |
| 2026-04-30 15:06 | 47.51392 | 7.70606 | 35214 ft | 458 kts | 152° |
| 2026-04-30 15:07 | 47.39856 | 7.78663 | 35209 ft | 459 kts | 152° |
| 2026-04-30 15:08 | 47.28296 | 7.86692 | 35213 ft | 459 kts | 152° |
| 2026-04-30 15:09 | 47.13855 | 7.96678 | 35203 ft | 459 kts | 152° |
| 2026-04-30 15:10 | 47.02264 | 8.04668 | 35181 ft | 460 kts | 152° |
| 2026-04-30 15:11 | 46.84849 | 8.16570 | 35168 ft | 462 kts | 153° |
| 2026-04-30 15:13 | 46.70206 | 8.26506 | 35154 ft | 465 kts | 153° |
| 2026-04-30 15:14 | 46.49603 | 8.40401 | 35214 ft | 468 kts | 153° |
| 2026-04-30 15:17 | 46.23522 | 8.59969 | 35288 ft | 471 kts | 150° |
| 2026-04-30 15:19 | 46.00277 | 8.77537 | 35297 ft | 474 kts | 150° |